sensor_id;sensor_type;location;lat;lon;timestamp;P1;durP1;ratioP1;P2;durP2;ratioP2
4636;SDS011;2331;48.806;9.140;2023-03-13T00:00:26;9.68;;;3.90;;
4636;SDS011;2331;48.806;9.140;2023-03-13T00:02:53;19.98;;;3.72;;
4636;SDS011;2331;48.806;9.140;2023-03-13T00:05:19;8.98;;;3.28;;
4636;SDS011;2331;48.806;9.140;2023-03-13T00:07:46;10.70;;;3.28;;
4636;SDS011;2331;48.806;9.140;2023-03-13T00:10:13;9.90;;;2.97;;
4636;SDS011;2331;48.806;9.140;2023-03-13T00:12:40;13.52;;;3.80;;
4636;SDS011;2331;48.806;9.140;2023-03-13T00:15:07;14.02;;;3.60;;
4636;SDS011;2331;48.806;9.140;2023-03-13T00:17:35;7.70;;;3.30;;
4636;SDS011;2331;48.806;9.140;2023-03-13T00:20:02;10.63;;;3.38;;
4636;SDS011;2331;48.806;9.140;2023-03-13T00:22:29;13.18;;;3.60;;
4636;SDS011;2331;48.806;9.140;2023-03-13T00:24:56;6.70;;;2.42;;
4636;SDS011;2331;48.806;9.140;2023-03-13T00:27:23;17.60;;;4.07;;
4636;SDS011;2331;48.806;9.140;2023-03-13T00:29:49;15.23;;;2.85;;
4636;SDS011;2331;48.806;9.140;2023-03-13T00:32:16;13.90;;;3.17;;
4636;SDS011;2331;48.806;9.140;2023-03-13T00:34:44;12.00;;;3.00;;
4636;SDS011;2331;48.806;9.140;2023-03-13T00:37:11;11.50;;;3.03;;
4636;SDS011;2331;48.806;9.140;2023-03-13T00:39:37;8.80;;;3.20;;
4636;SDS011;2331;48.806;9.140;2023-03-13T00:42:04;14.13;;;3.63;;
4636;SDS011;2331;48.806;9.140;2023-03-13T00:44:31;9.80;;;3.25;;
4636;SDS011;2331;48.806;9.140;2023-03-13T00:46:58;6.80;;;2.70;;
4636;SDS011;2331;48.806;9.140;2023-03-13T00:49:25;12.65;;;3.40;;
4636;SDS011;2331;48.806;9.140;2023-03-13T00:51:53;11.75;;;2.83;;
4636;SDS011;2331;48.806;9.140;2023-03-13T00:54:19;10.55;;;3.33;;
4636;SDS011;2331;48.806;9.140;2023-03-13T00:56:46;11.75;;;2.85;;
4636;SDS011;2331;48.806;9.140;2023-03-13T00:59:13;12.45;;;4.18;;
4636;SDS011;2331;48.806;9.140;2023-03-13T01:01:40;7.65;;;2.90;;
4636;SDS011;2331;48.806;9.140;2023-03-13T01:04:07;14.48;;;3.05;;
4636;SDS011;2331;48.806;9.140;2023-03-13T01:06:36;17.80;;;3.22;;
4636;SDS011;2331;48.806;9.140;2023-03-13T01:09:09;8.00;;;2.97;;
4636;SDS011;2331;48.806;9.140;2023-03-13T01:11:40;15.18;;;3.97;;
4636;SDS011;2331;48.806;9.140;2023-03-13T01:14:08;13.98;;;3.20;;
4636;SDS011;2331;48.806;9.140;2023-03-13T01:16:37;11.32;;;3.15;;
4636;SDS011;2331;48.806;9.140;2023-03-13T01:19:05;8.10;;;2.95;;
4636;SDS011;2331;48.806;9.140;2023-03-13T01:21:33;10.15;;;3.42;;
4636;SDS011;2331;48.806;9.140;2023-03-13T01:24:01;9.77;;;3.30;;
4636;SDS011;2331;48.806;9.140;2023-03-13T01:26:30;10.75;;;2.78;;
4636;SDS011;2331;48.806;9.140;2023-03-13T01:28:57;9.90;;;3.15;;
4636;SDS011;2331;48.806;9.140;2023-03-13T01:31:24;7.10;;;2.40;;
4636;SDS011;2331;48.806;9.140;2023-03-13T01:33:53;10.38;;;2.67;;
4636;SDS011;2331;48.806;9.140;2023-03-13T01:36:20;8.07;;;2.60;;
4636;SDS011;2331;48.806;9.140;2023-03-13T01:38:48;12.98;;;2.80;;
4636;SDS011;2331;48.806;9.140;2023-03-13T01:41:16;11.50;;;3.20;;
4636;SDS011;2331;48.806;9.140;2023-03-13T01:43:45;10.40;;;2.53;;
4636;SDS011;2331;48.806;9.140;2023-03-13T01:46:13;9.70;;;3.60;;
4636;SDS011;2331;48.806;9.140;2023-03-13T01:48:42;6.30;;;2.80;;
4636;SDS011;2331;48.806;9.140;2023-03-13T01:51:16;12.05;;;3.03;;
4636;SDS011;2331;48.806;9.140;2023-03-13T01:53:47;8.43;;;2.67;;
4636;SDS011;2331;48.806;9.140;2023-03-13T01:56:18;10.73;;;2.55;;
4636;SDS011;2331;48.806;9.140;2023-03-13T01:58:49;10.10;;;2.97;;
4636;SDS011;2331;48.806;9.140;2023-03-13T02:01:17;10.05;;;3.13;;
4636;SDS011;2331;48.806;9.140;2023-03-13T02:03:45;8.48;;;2.55;;
4636;SDS011;2331;48.806;9.140;2023-03-13T02:06:14;10.40;;;2.45;;
4636;SDS011;2331;48.806;9.140;2023-03-13T02:08:41;10.02;;;2.45;;
4636;SDS011;2331;48.806;9.140;2023-03-13T02:11:15;8.32;;;2.30;;
4636;SDS011;2331;48.806;9.140;2023-03-13T02:13:51;9.38;;;2.92;;
4636;SDS011;2331;48.806;9.140;2023-03-13T02:16:20;6.68;;;1.95;;
4636;SDS011;2331;48.806;9.140;2023-03-13T02:18:47;8.82;;;2.13;;
4636;SDS011;2331;48.806;9.140;2023-03-13T02:21:15;10.93;;;2.55;;
4636;SDS011;2331;48.806;9.140;2023-03-13T02:23:50;8.95;;;2.80;;
4636;SDS011;2331;48.806;9.140;2023-03-13T02:26:23;6.57;;;2.30;;
4636;SDS011;2331;48.806;9.140;2023-03-13T02:28:50;7.60;;;2.55;;
4636;SDS011;2331;48.806;9.140;2023-03-13T02:31:17;9.30;;;2.13;;
4636;SDS011;2331;48.806;9.140;2023-03-13T02:33:43;14.63;;;3.00;;
4636;SDS011;2331;48.806;9.140;2023-03-13T02:36:10;7.40;;;2.30;;
4636;SDS011;2331;48.806;9.140;2023-03-13T02:38:41;8.15;;;2.70;;
4636;SDS011;2331;48.806;9.140;2023-03-13T02:41:13;7.60;;;2.20;;
4636;SDS011;2331;48.806;9.140;2023-03-13T02:43:42;11.02;;;1.90;;
4636;SDS011;2331;48.806;9.140;2023-03-13T02:46:09;4.28;;;1.67;;
4636;SDS011;2331;48.806;9.140;2023-03-13T02:48:38;6.47;;;2.05;;
4636;SDS011;2331;48.806;9.140;2023-03-13T02:51:07;8.70;;;3.03;;
4636;SDS011;2331;48.806;9.140;2023-03-13T02:53:39;6.40;;;1.70;;
4636;SDS011;2331;48.806;9.140;2023-03-13T02:56:07;5.30;;;1.85;;
4636;SDS011;2331;48.806;9.140;2023-03-13T02:58:37;4.82;;;1.60;;
4636;SDS011;2331;48.806;9.140;2023-03-13T03:01:06;7.32;;;2.10;;
4636;SDS011;2331;48.806;9.140;2023-03-13T03:03:33;11.70;;;3.00;;
4636;SDS011;2331;48.806;9.140;2023-03-13T03:06:00;3.65;;;1.50;;
4636;SDS011;2331;48.806;9.140;2023-03-13T03:08:28;3.85;;;1.20;;
4636;SDS011;2331;48.806;9.140;2023-03-13T03:10:54;5.25;;;1.52;;
4636;SDS011;2331;48.806;9.140;2023-03-13T03:13:21;4.57;;;1.50;;
4636;SDS011;2331;48.806;9.140;2023-03-13T03:15:48;6.72;;;1.80;;
4636;SDS011;2331;48.806;9.140;2023-03-13T03:18:16;5.43;;;1.80;;
4636;SDS011;2331;48.806;9.140;2023-03-13T03:20:42;8.88;;;2.00;;
4636;SDS011;2331;48.806;9.140;2023-03-13T03:23:09;5.05;;;1.92;;
4636;SDS011;2331;48.806;9.140;2023-03-13T03:25:36;7.00;;;1.58;;
4636;SDS011;2331;48.806;9.140;2023-03-13T03:28:02;4.47;;;1.60;;
4636;SDS011;2331;48.806;9.140;2023-03-13T03:30:29;3.97;;;1.85;;
4636;SDS011;2331;48.806;9.140;2023-03-13T03:32:56;4.95;;;1.73;;
4636;SDS011;2331;48.806;9.140;2023-03-13T03:35:24;5.03;;;1.50;;
4636;SDS011;2331;48.806;9.140;2023-03-13T03:37:50;4.65;;;1.70;;
4636;SDS011;2331;48.806;9.140;2023-03-13T03:40:17;3.17;;;1.40;;
4636;SDS011;2331;48.806;9.140;2023-03-13T03:42:45;3.50;;;1.40;;
4636;SDS011;2331;48.806;9.140;2023-03-13T03:45:12;4.68;;;1.45;;
4636;SDS011;2331;48.806;9.140;2023-03-13T03:47:38;5.35;;;1.60;;
4636;SDS011;2331;48.806;9.140;2023-03-13T03:50:05;6.35;;;2.05;;
4636;SDS011;2331;48.806;9.140;2023-03-13T03:52:36;3.22;;;1.70;;
4636;SDS011;2331;48.806;9.140;2023-03-13T03:55:03;4.28;;;1.40;;
4636;SDS011;2331;48.806;9.140;2023-03-13T03:57:30;7.53;;;1.65;;
4636;SDS011;2331;48.806;9.140;2023-03-13T03:59:57;3.40;;;1.67;;
4636;SDS011;2331;48.806;9.140;2023-03-13T04:02:24;3.83;;;1.30;;
4636;SDS011;2331;48.806;9.140;2023-03-13T04:04:50;3.83;;;1.20;;
4636;SDS011;2331;48.806;9.140;2023-03-13T04:07:17;3.20;;;1.20;;
4636;SDS011;2331;48.806;9.140;2023-03-13T04:09:45;1.60;;;0.95;;
4636;SDS011;2331;48.806;9.140;2023-03-13T04:12:12;3.15;;;1.00;;
4636;SDS011;2331;48.806;9.140;2023-03-13T04:14:38;2.05;;;0.93;;
4636;SDS011;2331;48.806;9.140;2023-03-13T04:17:05;2.63;;;1.08;;
4636;SDS011;2331;48.806;9.140;2023-03-13T04:19:32;1.23;;;0.80;;
4636;SDS011;2331;48.806;9.140;2023-03-13T04:21:58;3.40;;;1.10;;
4636;SDS011;2331;48.806;9.140;2023-03-13T04:24:25;2.70;;;1.00;;
4636;SDS011;2331;48.806;9.140;2023-03-13T04:26:53;2.00;;;1.00;;
4636;SDS011;2331;48.806;9.140;2023-03-13T04:29:20;1.42;;;1.00;;
4636;SDS011;2331;48.806;9.140;2023-03-13T04:31:46;2.13;;;0.80;;
4636;SDS011;2331;48.806;9.140;2023-03-13T04:34:13;1.92;;;0.75;;
4636;SDS011;2331;48.806;9.140;2023-03-13T04:36:40;1.75;;;1.02;;
4636;SDS011;2331;48.806;9.140;2023-03-13T04:39:06;3.08;;;0.80;;
4636;SDS011;2331;48.806;9.140;2023-03-13T04:41:33;2.67;;;1.10;;
4636;SDS011;2331;48.806;9.140;2023-03-13T04:44:01;2.00;;;1.05;;
4636;SDS011;2331;48.806;9.140;2023-03-13T04:46:27;3.47;;;0.90;;
4636;SDS011;2331;48.806;9.140;2023-03-13T04:48:54;4.47;;;1.10;;
4636;SDS011;2331;48.806;9.140;2023-03-13T04:51:21;2.47;;;1.45;;
4636;SDS011;2331;48.806;9.140;2023-03-13T04:53:48;2.00;;;1.00;;
4636;SDS011;2331;48.806;9.140;2023-03-13T04:56:16;1.92;;;0.95;;
4636;SDS011;2331;48.806;9.140;2023-03-13T04:58:46;1.10;;;0.93;;
4636;SDS011;2331;48.806;9.140;2023-03-13T05:01:14;2.58;;;1.33;;
4636;SDS011;2331;48.806;9.140;2023-03-13T05:03:41;2.80;;;1.15;;
4636;SDS011;2331;48.806;9.140;2023-03-13T05:06:08;1.90;;;0.90;;
4636;SDS011;2331;48.806;9.140;2023-03-13T05:08:35;2.15;;;0.70;;
4636;SDS011;2331;48.806;9.140;2023-03-13T05:11:02;1.25;;;0.70;;
4636;SDS011;2331;48.806;9.140;2023-03-13T05:13:29;2.45;;;0.88;;
4636;SDS011;2331;48.806;9.140;2023-03-13T05:15:56;2.80;;;0.88;;
4636;SDS011;2331;48.806;9.140;2023-03-13T05:18:24;0.70;;;0.60;;
4636;SDS011;2331;48.806;9.140;2023-03-13T05:20:50;1.52;;;0.60;;
4636;SDS011;2331;48.806;9.140;2023-03-13T05:23:17;0.90;;;0.70;;
4636;SDS011;2331;48.806;9.140;2023-03-13T05:25:44;1.45;;;0.80;;
4636;SDS011;2331;48.806;9.140;2023-03-13T05:28:11;1.75;;;0.77;;
4636;SDS011;2331;48.806;9.140;2023-03-13T05:30:37;2.15;;;1.15;;
4636;SDS011;2331;48.806;9.140;2023-03-13T05:33:04;1.30;;;0.70;;
4636;SDS011;2331;48.806;9.140;2023-03-13T05:35:32;1.30;;;0.95;;
4636;SDS011;2331;48.806;9.140;2023-03-13T05:37:59;1.80;;;0.68;;
4636;SDS011;2331;48.806;9.140;2023-03-13T05:40:25;1.70;;;0.60;;
4636;SDS011;2331;48.806;9.140;2023-03-13T05:42:52;1.30;;;0.60;;
4636;SDS011;2331;48.806;9.140;2023-03-13T05:45:19;1.00;;;0.60;;
4636;SDS011;2331;48.806;9.140;2023-03-13T05:47:45;1.85;;;0.70;;
4636;SDS011;2331;48.806;9.140;2023-03-13T05:50:12;2.53;;;0.93;;
4636;SDS011;2331;48.806;9.140;2023-03-13T05:52:40;1.30;;;0.60;;
4636;SDS011;2331;48.806;9.140;2023-03-13T05:55:07;1.35;;;0.73;;
4636;SDS011;2331;48.806;9.140;2023-03-13T05:57:34;0.93;;;0.52;;
4636;SDS011;2331;48.806;9.140;2023-03-13T06:00:00;1.42;;;0.70;;
4636;SDS011;2331;48.806;9.140;2023-03-13T06:02:27;3.38;;;0.70;;
4636;SDS011;2331;48.806;9.140;2023-03-13T06:04:54;1.00;;;0.60;;
4636;SDS011;2331;48.806;9.140;2023-03-13T06:07:22;0.95;;;0.50;;
4636;SDS011;2331;48.806;9.140;2023-03-13T06:09:50;1.35;;;0.57;;
4636;SDS011;2331;48.806;9.140;2023-03-13T06:12:16;1.10;;;0.60;;
4636;SDS011;2331;48.806;9.140;2023-03-13T06:14:43;2.08;;;0.50;;
4636;SDS011;2331;48.806;9.140;2023-03-13T06:17:10;2.25;;;0.73;;
4636;SDS011;2331;48.806;9.140;2023-03-13T06:19:37;2.10;;;1.02;;
4636;SDS011;2331;48.806;9.140;2023-03-13T06:22:04;1.02;;;0.60;;
4636;SDS011;2331;48.806;9.140;2023-03-13T06:24:30;1.77;;;0.60;;
4636;SDS011;2331;48.806;9.140;2023-03-13T06:26:58;1.08;;;0.70;;
4636;SDS011;2331;48.806;9.140;2023-03-13T06:29:25;1.73;;;0.90;;
4636;SDS011;2331;48.806;9.140;2023-03-13T06:31:52;1.05;;;0.60;;
4636;SDS011;2331;48.806;9.140;2023-03-13T06:34:19;1.10;;;0.57;;
4636;SDS011;2331;48.806;9.140;2023-03-13T06:36:46;1.95;;;0.82;;
4636;SDS011;2331;48.806;9.140;2023-03-13T06:39:12;2.58;;;0.60;;
4636;SDS011;2331;48.806;9.140;2023-03-13T06:41:39;1.50;;;0.73;;
4636;SDS011;2331;48.806;9.140;2023-03-13T06:44:07;1.00;;;0.60;;
4636;SDS011;2331;48.806;9.140;2023-03-13T06:46:34;0.80;;;0.40;;
4636;SDS011;2331;48.806;9.140;2023-03-13T06:49:01;0.90;;;0.50;;
4636;SDS011;2331;48.806;9.140;2023-03-13T06:51:29;3.17;;;0.50;;
4636;SDS011;2331;48.806;9.140;2023-03-13T06:53:57;2.15;;;0.68;;
4636;SDS011;2331;48.806;9.140;2023-03-13T06:56:23;0.80;;;0.50;;
4636;SDS011;2331;48.806;9.140;2023-03-13T06:58:50;1.83;;;0.80;;
4636;SDS011;2331;48.806;9.140;2023-03-13T07:01:18;0.82;;;0.40;;
4636;SDS011;2331;48.806;9.140;2023-03-13T07:03:45;0.90;;;0.60;;
4636;SDS011;2331;48.806;9.140;2023-03-13T07:06:12;3.60;;;0.80;;
4636;SDS011;2331;48.806;9.140;2023-03-13T07:08:39;0.80;;;0.50;;
4636;SDS011;2331;48.806;9.140;2023-03-13T07:11:08;1.10;;;0.60;;
4636;SDS011;2331;48.806;9.140;2023-03-13T07:13:36;0.70;;;0.50;;
4636;SDS011;2331;48.806;9.140;2023-03-13T07:16:04;2.45;;;0.60;;
4636;SDS011;2331;48.806;9.140;2023-03-13T07:18:33;1.17;;;0.60;;
4636;SDS011;2331;48.806;9.140;2023-03-13T07:21:01;0.70;;;0.40;;
4636;SDS011;2331;48.806;9.140;2023-03-13T07:23:30;0.80;;;0.50;;
4636;SDS011;2331;48.806;9.140;2023-03-13T07:25:58;0.95;;;0.50;;
4636;SDS011;2331;48.806;9.140;2023-03-13T07:28:26;0.70;;;0.60;;
4636;SDS011;2331;48.806;9.140;2023-03-13T07:31:01;2.00;;;0.57;;
4636;SDS011;2331;48.806;9.140;2023-03-13T07:33:29;2.28;;;0.60;;
4636;SDS011;2331;48.806;9.140;2023-03-13T07:35:57;0.63;;;0.40;;
4636;SDS011;2331;48.806;9.140;2023-03-13T07:38:24;1.50;;;0.70;;
4636;SDS011;2331;48.806;9.140;2023-03-13T07:40:51;1.60;;;0.80;;
4636;SDS011;2331;48.806;9.140;2023-03-13T07:43:18;1.35;;;0.65;;
4636;SDS011;2331;48.806;9.140;2023-03-13T07:45:49;1.63;;;0.85;;
4636;SDS011;2331;48.806;9.140;2023-03-13T07:48:20;0.63;;;0.50;;
4636;SDS011;2331;48.806;9.140;2023-03-13T07:50:49;1.00;;;0.65;;
4636;SDS011;2331;48.806;9.140;2023-03-13T07:53:18;0.70;;;0.50;;
4636;SDS011;2331;48.806;9.140;2023-03-13T07:55:55;1.20;;;0.68;;
4636;SDS011;2331;48.806;9.140;2023-03-13T07:58:24;2.63;;;1.42;;
4636;SDS011;2331;48.806;9.140;2023-03-13T08:00:52;1.88;;;0.55;;
4636;SDS011;2331;48.806;9.140;2023-03-13T08:03:19;1.13;;;0.80;;
4636;SDS011;2331;48.806;9.140;2023-03-13T08:05:46;0.90;;;0.60;;
4636;SDS011;2331;48.806;9.140;2023-03-13T08:08:13;1.10;;;0.70;;
4636;SDS011;2331;48.806;9.140;2023-03-13T08:10:41;1.10;;;0.52;;
4636;SDS011;2331;48.806;9.140;2023-03-13T08:13:09;1.60;;;0.70;;
4636;SDS011;2331;48.806;9.140;2023-03-13T08:15:36;1.80;;;0.90;;
4636;SDS011;2331;48.806;9.140;2023-03-13T08:18:02;6.10;;;1.02;;
4636;SDS011;2331;48.806;9.140;2023-03-13T08:20:29;2.28;;;0.90;;
4636;SDS011;2331;48.806;9.140;2023-03-13T08:22:56;1.10;;;0.60;;
4636;SDS011;2331;48.806;9.140;2023-03-13T08:25:23;1.23;;;0.65;;
4636;SDS011;2331;48.806;9.140;2023-03-13T08:27:51;2.88;;;1.02;;
4636;SDS011;2331;48.806;9.140;2023-03-13T08:30:17;1.08;;;0.77;;
4636;SDS011;2331;48.806;9.140;2023-03-13T08:32:44;6.13;;;2.10;;
4636;SDS011;2331;48.806;9.140;2023-03-13T08:35:11;2.20;;;0.63;;
4636;SDS011;2331;48.806;9.140;2023-03-13T08:37:38;1.65;;;0.90;;
4636;SDS011;2331;48.806;9.140;2023-03-13T08:40:05;2.35;;;1.10;;
4636;SDS011;2331;48.806;9.140;2023-03-13T08:42:35;1.95;;;0.60;;
4636;SDS011;2331;48.806;9.140;2023-03-13T08:45:04;1.20;;;0.80;;
4636;SDS011;2331;48.806;9.140;2023-03-13T08:47:32;3.08;;;0.82;;
4636;SDS011;2331;48.806;9.140;2023-03-13T08:49:58;1.75;;;0.80;;
4636;SDS011;2331;48.806;9.140;2023-03-13T08:52:25;2.75;;;0.60;;
4636;SDS011;2331;48.806;9.140;2023-03-13T08:54:52;1.67;;;0.93;;
4636;SDS011;2331;48.806;9.140;2023-03-13T08:57:19;0.90;;;0.70;;
4636;SDS011;2331;48.806;9.140;2023-03-13T08:59:46;0.80;;;0.63;;
4636;SDS011;2331;48.806;9.140;2023-03-13T09:02:14;1.63;;;0.90;;
4636;SDS011;2331;48.806;9.140;2023-03-13T09:04:44;1.50;;;0.90;;
4636;SDS011;2331;48.806;9.140;2023-03-13T09:07:12;1.50;;;0.93;;
4636;SDS011;2331;48.806;9.140;2023-03-13T09:09:38;1.52;;;0.80;;
4636;SDS011;2331;48.806;9.140;2023-03-13T09:12:05;1.40;;;0.95;;
4636;SDS011;2331;48.806;9.140;2023-03-13T09:14:32;1.48;;;0.80;;
4636;SDS011;2331;48.806;9.140;2023-03-13T09:16:59;0.95;;;0.70;;
4636;SDS011;2331;48.806;9.140;2023-03-13T09:19:28;3.05;;;0.80;;
4636;SDS011;2331;48.806;9.140;2023-03-13T09:21:55;1.73;;;1.00;;
4636;SDS011;2331;48.806;9.140;2023-03-13T09:24:23;3.28;;;0.80;;
4636;SDS011;2331;48.806;9.140;2023-03-13T09:26:50;1.23;;;0.90;;
4636;SDS011;2331;48.806;9.140;2023-03-13T09:29:17;1.67;;;0.90;;
4636;SDS011;2331;48.806;9.140;2023-03-13T09:31:44;1.95;;;0.70;;
4636;SDS011;2331;48.806;9.140;2023-03-13T09:34:10;1.00;;;0.60;;
4636;SDS011;2331;48.806;9.140;2023-03-13T09:36:38;4.63;;;0.73;;
4636;SDS011;2331;48.806;9.140;2023-03-13T09:39:05;1.52;;;0.70;;
4636;SDS011;2331;48.806;9.140;2023-03-13T09:41:33;2.10;;;1.17;;
4636;SDS011;2331;48.806;9.140;2023-03-13T09:44:05;1.65;;;0.77;;
4636;SDS011;2331;48.806;9.140;2023-03-13T09:46:37;1.88;;;0.63;;
4636;SDS011;2331;48.806;9.140;2023-03-13T09:49:10;3.03;;;0.80;;
4636;SDS011;2331;48.806;9.140;2023-03-13T09:51:42;1.75;;;0.70;;
4636;SDS011;2331;48.806;9.140;2023-03-13T09:54:17;2.75;;;0.90;;
4636;SDS011;2331;48.806;9.140;2023-03-13T09:56:49;2.97;;;0.73;;
4636;SDS011;2331;48.806;9.140;2023-03-13T09:59:21;2.05;;;0.90;;
4636;SDS011;2331;48.806;9.140;2023-03-13T10:01:54;1.30;;;0.95;;
4636;SDS011;2331;48.806;9.140;2023-03-13T10:04:26;2.95;;;0.80;;
4636;SDS011;2331;48.806;9.140;2023-03-13T10:06:58;2.53;;;1.20;;
4636;SDS011;2331;48.806;9.140;2023-03-13T10:09:27;1.88;;;1.00;;
4636;SDS011;2331;48.806;9.140;2023-03-13T10:11:57;3.88;;;1.10;;
4636;SDS011;2331;48.806;9.140;2023-03-13T10:14:32;2.50;;;1.00;;
4636;SDS011;2331;48.806;9.140;2023-03-13T10:17:08;1.92;;;1.02;;
4636;SDS011;2331;48.806;9.140;2023-03-13T10:19:40;2.67;;;0.93;;
4636;SDS011;2331;48.806;9.140;2023-03-13T10:22:12;1.80;;;1.10;;
4636;SDS011;2331;48.806;9.140;2023-03-13T10:24:42;1.70;;;1.08;;
4636;SDS011;2331;48.806;9.140;2023-03-13T10:27:14;2.05;;;1.20;;
4636;SDS011;2331;48.806;9.140;2023-03-13T10:29:41;1.48;;;0.80;;
4636;SDS011;2331;48.806;9.140;2023-03-13T10:32:09;3.70;;;1.25;;
4636;SDS011;2331;48.806;9.140;2023-03-13T10:34:47;2.10;;;1.15;;
4636;SDS011;2331;48.806;9.140;2023-03-13T10:37:22;1.45;;;1.20;;
4636;SDS011;2331;48.806;9.140;2023-03-13T10:39:50;1.83;;;1.00;;
4636;SDS011;2331;48.806;9.140;2023-03-13T10:42:19;3.03;;;1.10;;
4636;SDS011;2331;48.806;9.140;2023-03-13T10:44:49;2.70;;;1.20;;
4636;SDS011;2331;48.806;9.140;2023-03-13T10:47:21;2.17;;;1.40;;
4636;SDS011;2331;48.806;9.140;2023-03-13T10:49:49;1.67;;;1.20;;
4636;SDS011;2331;48.806;9.140;2023-03-13T10:52:30;2.85;;;1.23;;
4636;SDS011;2331;48.806;9.140;2023-03-13T10:54:59;2.17;;;1.10;;
4636;SDS011;2331;48.806;9.140;2023-03-13T10:57:28;1.50;;;1.13;;
4636;SDS011;2331;48.806;9.140;2023-03-13T10:59:56;5.45;;;1.20;;
4636;SDS011;2331;48.806;9.140;2023-03-13T11:02:25;1.80;;;1.20;;
4636;SDS011;2331;48.806;9.140;2023-03-13T11:04:57;1.13;;;0.95;;
4636;SDS011;2331;48.806;9.140;2023-03-13T11:07:25;3.47;;;1.35;;
4636;SDS011;2331;48.806;9.140;2023-03-13T11:09:57;3.75;;;1.35;;
4636;SDS011;2331;48.806;9.140;2023-03-13T11:12:25;2.80;;;1.20;;
4636;SDS011;2331;48.806;9.140;2023-03-13T11:14:56;1.73;;;1.13;;
4636;SDS011;2331;48.806;9.140;2023-03-13T11:17:27;2.45;;;1.00;;
4636;SDS011;2331;48.806;9.140;2023-03-13T11:20:02;2.20;;;1.00;;
4636;SDS011;2331;48.806;9.140;2023-03-13T11:22:37;1.50;;;0.90;;
4636;SDS011;2331;48.806;9.140;2023-03-13T11:25:15;1.88;;;1.17;;
4636;SDS011;2331;48.806;9.140;2023-03-13T11:27:48;1.70;;;1.00;;
4636;SDS011;2331;48.806;9.140;2023-03-13T11:30:41;1.50;;;1.00;;
4636;SDS011;2331;48.806;9.140;2023-03-13T11:33:19;6.57;;;1.15;;
4636;SDS011;2331;48.806;9.140;2023-03-13T11:35:52;2.55;;;1.42;;
4636;SDS011;2331;48.806;9.140;2023-03-13T11:38:28;14.73;;;7.38;;
4636;SDS011;2331;48.806;9.140;2023-03-13T11:41:03;39.03;;;21.85;;
4636;SDS011;2331;48.806;9.140;2023-03-13T11:43:43;46.17;;;26.33;;
4636;SDS011;2331;48.806;9.140;2023-03-13T11:46:21;5.45;;;3.90;;
4636;SDS011;2331;48.806;9.140;2023-03-13T11:48:59;5.15;;;2.22;;
4636;SDS011;2331;48.806;9.140;2023-03-13T11:51:51;2.55;;;1.60;;
4636;SDS011;2331;48.806;9.140;2023-03-13T11:57:28;2.88;;;1.48;;
4636;SDS011;2331;48.806;9.140;2023-03-13T12:00:13;2.85;;;1.30;;
4636;SDS011;2331;48.806;9.140;2023-03-13T12:02:45;2.88;;;1.77;;
4636;SDS011;2331;48.806;9.140;2023-03-13T12:05:16;2.15;;;1.10;;
4636;SDS011;2331;48.806;9.140;2023-03-13T12:07:46;5.78;;;1.52;;
4636;SDS011;2331;48.806;9.140;2023-03-13T12:10:20;2.67;;;1.10;;
4636;SDS011;2331;48.806;9.140;2023-03-13T12:12:54;3.60;;;1.03;;
4636;SDS011;2331;48.806;9.140;2023-03-13T12:15:27;1.83;;;1.20;;
4636;SDS011;2331;48.806;9.140;2023-03-13T12:17:58;2.33;;;1.17;;
4636;SDS011;2331;48.806;9.140;2023-03-13T12:20:28;3.17;;;1.20;;
4636;SDS011;2331;48.806;9.140;2023-03-13T12:23:05;1.83;;;1.20;;
4636;SDS011;2331;48.806;9.140;2023-03-13T12:25:43;1.90;;;1.20;;
4636;SDS011;2331;48.806;9.140;2023-03-13T12:28:17;3.88;;;1.08;;
4636;SDS011;2331;48.806;9.140;2023-03-13T12:30:51;2.63;;;1.20;;
4636;SDS011;2331;48.806;9.140;2023-03-13T12:33:25;1.70;;;1.17;;
4636;SDS011;2331;48.806;9.140;2023-03-13T12:35:57;2.08;;;1.10;;
4636;SDS011;2331;48.806;9.140;2023-03-13T12:38:30;2.23;;;1.20;;
4636;SDS011;2331;48.806;9.140;2023-03-13T12:41:06;1.30;;;0.85;;
4636;SDS011;2331;48.806;9.140;2023-03-13T12:43:41;3.28;;;1.08;;
4636;SDS011;2331;48.806;9.140;2023-03-13T12:49:12;3.40;;;1.20;;
4636;SDS011;2331;48.806;9.140;2023-03-13T12:52:11;4.50;;;0.80;;
4636;SDS011;2331;48.806;9.140;2023-03-13T12:55:32;1.67;;;1.07;;
4636;SDS011;2331;48.806;9.140;2023-03-13T12:58:21;1.90;;;1.00;;
4636;SDS011;2331;48.806;9.140;2023-03-13T13:00:54;2.53;;;1.20;;
4636;SDS011;2331;48.806;9.140;2023-03-13T13:03:28;2.53;;;1.00;;
4636;SDS011;2331;48.806;9.140;2023-03-13T13:06:07;2.10;;;1.20;;
4636;SDS011;2331;48.806;9.140;2023-03-13T13:08:39;3.40;;;0.80;;
4636;SDS011;2331;48.806;9.140;2023-03-13T13:17:44;2.10;;;0.90;;
4636;SDS011;2331;48.806;9.140;2023-03-13T13:20:29;2.17;;;1.10;;
4636;SDS011;2331;48.806;9.140;2023-03-13T13:23:17;4.07;;;1.07;;
4636;SDS011;2331;48.806;9.140;2023-03-13T13:25:57;4.47;;;1.40;;
4636;SDS011;2331;48.806;9.140;2023-03-13T13:35:27;2.67;;;1.17;;
4636;SDS011;2331;48.806;9.140;2023-03-13T13:40:59;2.83;;;1.30;;
4636;SDS011;2331;48.806;9.140;2023-03-13T13:43:28;7.17;;;1.03;;
4636;SDS011;2331;48.806;9.140;2023-03-13T13:45:58;1.50;;;0.80;;
4636;SDS011;2331;48.806;9.140;2023-03-13T13:48:31;2.77;;;0.90;;
4636;SDS011;2331;48.806;9.140;2023-03-13T13:53:50;1.93;;;1.10;;
4636;SDS011;2331;48.806;9.140;2023-03-13T13:56:36;2.00;;;1.03;;
4636;SDS011;2331;48.806;9.140;2023-03-13T13:59:13;3.33;;;0.90;;
4636;SDS011;2331;48.806;9.140;2023-03-13T14:01:49;1.40;;;0.70;;
4636;SDS011;2331;48.806;9.140;2023-03-13T14:04:34;3.73;;;1.00;;
4636;SDS011;2331;48.806;9.140;2023-03-13T14:07:03;2.77;;;1.17;;
4636;SDS011;2331;48.806;9.140;2023-03-13T14:09:32;1.73;;;0.80;;
4636;SDS011;2331;48.806;9.140;2023-03-13T14:15:04;2.10;;;0.80;;
4636;SDS011;2331;48.806;9.140;2023-03-13T14:17:36;1.57;;;0.67;;
4636;SDS011;2331;48.806;9.140;2023-03-13T14:20:14;3.57;;;0.80;;
4636;SDS011;2331;48.806;9.140;2023-03-13T14:22:52;7.87;;;1.00;;
4636;SDS011;2331;48.806;9.140;2023-03-13T14:25:20;3.83;;;1.10;;
4636;SDS011;2331;48.806;9.140;2023-03-13T14:27:47;1.90;;;0.77;;
4636;SDS011;2331;48.806;9.140;2023-03-13T14:30:16;2.20;;;0.77;;
4636;SDS011;2331;48.806;9.140;2023-03-13T14:32:44;3.37;;;0.97;;
4636;SDS011;2331;48.806;9.140;2023-03-13T14:35:14;3.03;;;0.80;;
4636;SDS011;2331;48.806;9.140;2023-03-13T14:37:43;2.90;;;0.80;;
4636;SDS011;2331;48.806;9.140;2023-03-13T14:40:18;3.93;;;1.00;;
4636;SDS011;2331;48.806;9.140;2023-03-13T14:42:48;2.80;;;0.97;;
4636;SDS011;2331;48.806;9.140;2023-03-13T14:45:20;1.77;;;0.90;;
4636;SDS011;2331;48.806;9.140;2023-03-13T14:47:49;1.83;;;0.80;;
4636;SDS011;2331;48.806;9.140;2023-03-13T14:50:18;4.40;;;1.30;;
4636;SDS011;2331;48.806;9.140;2023-03-13T14:52:48;71.60;;;3.30;;
4636;SDS011;2331;48.806;9.140;2023-03-13T14:58:23;3.10;;;1.10;;
4636;SDS011;2331;48.806;9.140;2023-03-13T15:00:52;5.37;;;1.00;;
4636;SDS011;2331;48.806;9.140;2023-03-13T15:03:29;3.50;;;0.80;;
4636;SDS011;2331;48.806;9.140;2023-03-13T15:06:06;4.70;;;1.27;;
4636;SDS011;2331;48.806;9.140;2023-03-13T15:08:41;3.40;;;1.30;;
4636;SDS011;2331;48.806;9.140;2023-03-13T15:11:19;4.07;;;0.87;;
4636;SDS011;2331;48.806;9.140;2023-03-13T15:13:50;2.10;;;0.90;;
4636;SDS011;2331;48.806;9.140;2023-03-13T15:16:18;4.50;;;0.90;;
4636;SDS011;2331;48.806;9.140;2023-03-13T15:18:47;2.13;;;0.73;;
4636;SDS011;2331;48.806;9.140;2023-03-13T15:21:20;3.57;;;0.80;;
4636;SDS011;2331;48.806;9.140;2023-03-13T15:23:50;1.70;;;0.83;;
4636;SDS011;2331;48.806;9.140;2023-03-13T15:26:18;5.63;;;1.03;;
4636;SDS011;2331;48.806;9.140;2023-03-13T15:28:45;2.10;;;1.00;;
4636;SDS011;2331;48.806;9.140;2023-03-13T15:31:12;1.87;;;1.00;;
4636;SDS011;2331;48.806;9.140;2023-03-13T15:33:39;3.77;;;0.90;;
4636;SDS011;2331;48.806;9.140;2023-03-13T15:36:07;2.80;;;1.10;;
4636;SDS011;2331;48.806;9.140;2023-03-13T15:38:36;2.20;;;1.00;;
4636;SDS011;2331;48.806;9.140;2023-03-13T15:41:03;3.00;;;1.10;;
4636;SDS011;2331;48.806;9.140;2023-03-13T15:43:31;2.53;;;0.90;;
4636;SDS011;2331;48.806;9.140;2023-03-13T15:45:58;1.73;;;0.80;;
4636;SDS011;2331;48.806;9.140;2023-03-13T15:48:26;5.63;;;1.00;;
4636;SDS011;2331;48.806;9.140;2023-03-13T15:50:55;2.40;;;1.00;;
4636;SDS011;2331;48.806;9.140;2023-03-13T15:53:24;3.27;;;1.10;;
4636;SDS011;2331;48.806;9.140;2023-03-13T15:55:56;2.83;;;1.07;;
4636;SDS011;2331;48.806;9.140;2023-03-13T15:58:24;3.80;;;1.10;;
4636;SDS011;2331;48.806;9.140;2023-03-13T16:00:52;2.13;;;0.90;;